sensor_id;sensor_type;location;lat;lon;timestamp;temperature;humidity
33645;DHT22;19986;48.190;16.366;2024-03-02T00:00:16;11.80;99.90
33645;DHT22;19986;48.190;16.366;2024-03-02T00:02:42;11.80;99.90
33645;DHT22;19986;48.190;16.366;2024-03-02T00:05:11;11.80;99.90
33645;DHT22;19986;48.190;16.366;2024-03-02T00:07:40;11.80;99.90
33645;DHT22;19986;48.190;16.366;2024-03-02T00:10:09;11.80;99.90
33645;DHT22;19986;48.190;16.366;2024-03-02T00:12:39;11.80;99.90
33645;DHT22;19986;48.190;16.366;2024-03-02T00:15:33;11.80;99.90
33645;DHT22;19986;48.190;16.366;2024-03-02T00:18:03;11.80;99.90
33645;DHT22;19986;48.190;16.366;2024-03-02T00:20:30;11.70;99.90
33645;DHT22;19986;48.190;16.366;2024-03-02T00:23:04;11.70;99.90
33645;DHT22;19986;48.190;16.366;2024-03-02T00:25:40;11.70;99.90
33645;DHT22;19986;48.190;16.366;2024-03-02T00:28:25;11.70;99.90
33645;DHT22;19986;48.190;16.366;2024-03-02T00:35:59;11.50;99.90
33645;DHT22;19986;48.190;16.366;2024-03-02T00:38:30;11.50;99.90
33645;DHT22;19986;48.190;16.366;2024-03-02T00:41:00;11.40;99.90
33645;DHT22;19986;48.190;16.366;2024-03-02T00:45:55;11.40;99.90
33645;DHT22;19986;48.190;16.366;2024-03-02T00:48:22;11.40;99.90
33645;DHT22;19986;48.190;16.366;2024-03-02T00:50:52;11.50;99.90
33645;DHT22;19986;48.190;16.366;2024-03-02T00:53:22;11.50;99.90
33645;DHT22;19986;48.190;16.366;2024-03-02T00:55:50;11.50;99.90
33645;DHT22;19986;48.190;16.366;2024-03-02T00:58:16;11.40;99.90
33645;DHT22;19986;48.190;16.366;2024-03-02T01:00:42;11.40;99.90
33645;DHT22;19986;48.190;16.366;2024-03-02T01:03:08;11.40;99.90
33645;DHT22;19986;48.190;16.366;2024-03-02T01:05:35;11.30;99.90
33645;DHT22;19986;48.190;16.366;2024-03-02T01:08:01;11.40;99.90
33645;DHT22;19986;48.190;16.366;2024-03-02T01:10:27;11.40;99.90
33645;DHT22;19986;48.190;16.366;2024-03-02T01:12:53;11.40;99.90
33645;DHT22;19986;48.190;16.366;2024-03-02T01:15:19;11.40;99.90
33645;DHT22;19986;48.190;16.366;2024-03-02T01:17:45;11.30;99.90
33645;DHT22;19986;48.190;16.366;2024-03-02T01:20:12;11.30;99.90
33645;DHT22;19986;48.190;16.366;2024-03-02T01:22:38;11.30;99.90
33645;DHT22;19986;48.190;16.366;2024-03-02T01:25:04;11.20;99.90
33645;DHT22;19986;48.190;16.366;2024-03-02T01:27:31;11.10;99.90
33645;DHT22;19986;48.190;16.366;2024-03-02T01:29:57;11.10;99.90
33645;DHT22;19986;48.190;16.366;2024-03-02T01:32:22;11.10;99.90
33645;DHT22;19986;48.190;16.366;2024-03-02T01:34:48;11.10;99.90
33645;DHT22;19986;48.190;16.366;2024-03-02T01:37:15;11.00;99.90
33645;DHT22;19986;48.190;16.366;2024-03-02T01:39:42;11.10;99.90
33645;DHT22;19986;48.190;16.366;2024-03-02T01:42:08;11.10;99.90
33645;DHT22;19986;48.190;16.366;2024-03-02T01:44:37;11.20;99.90
33645;DHT22;19986;48.190;16.366;2024-03-02T01:47:03;11.20;99.90
33645;DHT22;19986;48.190;16.366;2024-03-02T01:49:29;11.20;99.90
33645;DHT22;19986;48.190;16.366;2024-03-02T01:51:56;11.20;99.90
33645;DHT22;19986;48.190;16.366;2024-03-02T01:54:23;11.40;99.90
33645;DHT22;19986;48.190;16.366;2024-03-02T01:56:49;11.40;99.90
33645;DHT22;19986;48.190;16.366;2024-03-02T01:59:15;11.40;99.90
33645;DHT22;19986;48.190;16.366;2024-03-02T02:01:41;11.50;99.90
33645;DHT22;19986;48.190;16.366;2024-03-02T02:04:07;11.40;99.90
33645;DHT22;19986;48.190;16.366;2024-03-02T02:06:34;11.30;99.90
33645;DHT22;19986;48.190;16.366;2024-03-02T02:09:00;11.30;99.90
33645;DHT22;19986;48.190;16.366;2024-03-02T02:11:26;11.30;99.90
33645;DHT22;19986;48.190;16.366;2024-03-02T02:13:53;11.20;99.90
33645;DHT22;19986;48.190;16.366;2024-03-02T02:16:21;11.20;99.90
33645;DHT22;19986;48.190;16.366;2024-03-02T02:18:47;11.20;99.90
33645;DHT22;19986;48.190;16.366;2024-03-02T02:21:14;11.20;99.90
33645;DHT22;19986;48.190;16.366;2024-03-02T02:23:40;11.10;99.90
33645;DHT22;19986;48.190;16.366;2024-03-02T02:26:12;11.10;99.90
33645;DHT22;19986;48.190;16.366;2024-03-02T02:28:38;11.10;99.90
33645;DHT22;19986;48.190;16.366;2024-03-02T02:31:04;11.10;99.90
33645;DHT22;19986;48.190;16.366;2024-03-02T02:33:30;11.10;99.90
33645;DHT22;19986;48.190;16.366;2024-03-02T02:35:56;11.20;99.90
33645;DHT22;19986;48.190;16.366;2024-03-02T02:38:22;11.20;99.90
33645;DHT22;19986;48.190;16.366;2024-03-02T02:40:48;11.20;99.90
33645;DHT22;19986;48.190;16.366;2024-03-02T02:43:13;11.30;99.90
33645;DHT22;19986;48.190;16.366;2024-03-02T02:45:39;11.30;99.90
33645;DHT22;19986;48.190;16.366;2024-03-02T02:48:05;11.40;99.90
33645;DHT22;19986;48.190;16.366;2024-03-02T02:50:31;11.30;99.90
33645;DHT22;19986;48.190;16.366;2024-03-02T02:52:57;11.20;99.90
33645;DHT22;19986;48.190;16.366;2024-03-02T02:55:23;11.20;99.90
33645;DHT22;19986;48.190;16.366;2024-03-02T02:57:49;11.10;99.90
33645;DHT22;19986;48.190;16.366;2024-03-02T03:00:15;11.10;99.90
33645;DHT22;19986;48.190;16.366;2024-03-02T03:02:44;11.10;99.90
33645;DHT22;19986;48.190;16.366;2024-03-02T03:05:12;11.00;99.90
33645;DHT22;19986;48.190;16.366;2024-03-02T03:07:41;11.00;99.90
33645;DHT22;19986;48.190;16.366;2024-03-02T03:10:08;11.00;99.90
33645;DHT22;19986;48.190;16.366;2024-03-02T03:12:35;11.00;99.90
33645;DHT22;19986;48.190;16.366;2024-03-02T03:15:01;11.00;99.90
33645;DHT22;19986;48.190;16.366;2024-03-02T03:17:28;11.00;99.90
33645;DHT22;19986;48.190;16.366;2024-03-02T03:19:54;11.00;99.90
33645;DHT22;19986;48.190;16.366;2024-03-02T03:22:20;11.00;99.90
33645;DHT22;19986;48.190;16.366;2024-03-02T03:24:46;11.00;99.90
33645;DHT22;19986;48.190;16.366;2024-03-02T03:27:12;11.00;99.90
33645;DHT22;19986;48.190;16.366;2024-03-02T03:29:38;11.00;99.90
33645;DHT22;19986;48.190;16.366;2024-03-02T03:32:04;10.80;99.90
33645;DHT22;19986;48.190;16.366;2024-03-02T03:34:35;10.80;99.90
33645;DHT22;19986;48.190;16.366;2024-03-02T03:37:02;10.70;99.90
33645;DHT22;19986;48.190;16.366;2024-03-02T03:39:28;10.70;99.90
33645;DHT22;19986;48.190;16.366;2024-03-02T03:41:56;10.70;99.90
33645;DHT22;19986;48.190;16.366;2024-03-02T03:44:22;10.70;99.90
33645;DHT22;19986;48.190;16.366;2024-03-02T03:46:48;10.70;99.90
33645;DHT22;19986;48.190;16.366;2024-03-02T03:49:14;10.70;99.90
33645;DHT22;19986;48.190;16.366;2024-03-02T03:51:40;10.70;99.90
33645;DHT22;19986;48.190;16.366;2024-03-02T03:54:06;10.70;99.90
33645;DHT22;19986;48.190;16.366;2024-03-02T03:56:32;10.70;99.90
33645;DHT22;19986;48.190;16.366;2024-03-02T03:58:59;10.70;99.90
33645;DHT22;19986;48.190;16.366;2024-03-02T04:01:25;10.70;99.90
33645;DHT22;19986;48.190;16.366;2024-03-02T04:03:51;10.70;99.90
33645;DHT22;19986;48.190;16.366;2024-03-02T04:06:17;10.70;99.90
33645;DHT22;19986;48.190;16.366;2024-03-02T04:08:43;10.60;99.90
33645;DHT22;19986;48.190;16.366;2024-03-02T04:11:09;10.60;99.90
33645;DHT22;19986;48.190;16.366;2024-03-02T04:13:34;10.60;99.90
33645;DHT22;19986;48.190;16.366;2024-03-02T04:16:00;10.60;99.90
33645;DHT22;19986;48.190;16.366;2024-03-02T04:18:26;10.70;99.90
33645;DHT22;19986;48.190;16.366;2024-03-02T04:20:52;10.60;99.90
33645;DHT22;19986;48.190;16.366;2024-03-02T04:23:18;10.50;99.90
33645;DHT22;19986;48.190;16.366;2024-03-02T04:25:44;10.40;99.90
33645;DHT22;19986;48.190;16.366;2024-03-02T04:28:10;10.30;99.90
33645;DHT22;19986;48.190;16.366;2024-03-02T04:30:39;10.30;99.90
33645;DHT22;19986;48.190;16.366;2024-03-02T04:33:05;10.40;99.90
33645;DHT22;19986;48.190;16.366;2024-03-02T04:35:33;10.30;99.90
33645;DHT22;19986;48.190;16.366;2024-03-02T04:37:58;10.30;99.90
33645;DHT22;19986;48.190;16.366;2024-03-02T04:40:24;10.30;99.90
33645;DHT22;19986;48.190;16.366;2024-03-02T04:42:50;10.20;99.90
33645;DHT22;19986;48.190;16.366;2024-03-02T04:45:16;10.20;99.90
33645;DHT22;19986;48.190;16.366;2024-03-02T04:47:42;10.20;99.90
33645;DHT22;19986;48.190;16.366;2024-03-02T04:50:08;10.20;99.90
33645;DHT22;19986;48.190;16.366;2024-03-02T04:52:34;10.20;99.90
33645;DHT22;19986;48.190;16.366;2024-03-02T04:55:00;10.10;99.90
33645;DHT22;19986;48.190;16.366;2024-03-02T04:57:45;10.10;99.90
33645;DHT22;19986;48.190;16.366;2024-03-02T05:00:12;10.10;99.90
33645;DHT22;19986;48.190;16.366;2024-03-02T05:02:38;10.10;99.90
33645;DHT22;19986;48.190;16.366;2024-03-02T05:05:04;10.20;99.90
33645;DHT22;19986;48.190;16.366;2024-03-02T05:07:30;10.20;99.90
33645;DHT22;19986;48.190;16.366;2024-03-02T05:09:57;10.30;99.90
33645;DHT22;19986;48.190;16.366;2024-03-02T05:12:23;10.20;99.90
33645;DHT22;19986;48.190;16.366;2024-03-02T05:15:15;10.20;99.90
33645;DHT22;19986;48.190;16.366;2024-03-02T05:17:41;10.20;99.90
33645;DHT22;19986;48.190;16.366;2024-03-02T05:20:11;10.20;99.90
33645;DHT22;19986;48.190;16.366;2024-03-02T05:22:37;10.30;99.90
33645;DHT22;19986;48.190;16.366;2024-03-02T05:25:04;10.20;99.90
33645;DHT22;19986;48.190;16.366;2024-03-02T05:27:30;10.20;99.90
33645;DHT22;19986;48.190;16.366;2024-03-02T05:29:56;10.20;99.90
33645;DHT22;19986;48.190;16.366;2024-03-02T05:32:23;10.10;99.90
33645;DHT22;19986;48.190;16.366;2024-03-02T05:34:49;10.00;99.90
33645;DHT22;19986;48.190;16.366;2024-03-02T05:37:16;10.00;99.90
33645;DHT22;19986;48.190;16.366;2024-03-02T05:39:42;9.90;99.90
33645;DHT22;19986;48.190;16.366;2024-03-02T05:42:09;9.80;99.90
33645;DHT22;19986;48.190;16.366;2024-03-02T05:44:35;9.90;99.90
33645;DHT22;19986;48.190;16.366;2024-03-02T05:47:01;9.90;99.90
33645;DHT22;19986;48.190;16.366;2024-03-02T05:49:27;9.90;99.90
33645;DHT22;19986;48.190;16.366;2024-03-02T05:51:53;9.80;99.90
33645;DHT22;19986;48.190;16.366;2024-03-02T05:54:19;9.80;99.90
33645;DHT22;19986;48.190;16.366;2024-03-02T05:56:45;9.70;99.90
33645;DHT22;19986;48.190;16.366;2024-03-02T05:59:11;9.60;99.90
33645;DHT22;19986;48.190;16.366;2024-03-02T06:01:40;9.60;99.90
33645;DHT22;19986;48.190;16.366;2024-03-02T06:04:07;9.60;99.90
33645;DHT22;19986;48.190;16.366;2024-03-02T06:06:33;9.50;99.90
33645;DHT22;19986;48.190;16.366;2024-03-02T06:09:02;9.50;99.90
33645;DHT22;19986;48.190;16.366;2024-03-02T06:11:34;9.50;99.90
33645;DHT22;19986;48.190;16.366;2024-03-02T06:14:00;9.40;99.90
33645;DHT22;19986;48.190;16.366;2024-03-02T06:16:26;9.50;99.90
33645;DHT22;19986;48.190;16.366;2024-03-02T06:18:51;9.50;99.90
33645;DHT22;19986;48.190;16.366;2024-03-02T06:21:20;9.50;99.90
33645;DHT22;19986;48.190;16.366;2024-03-02T06:23:45;9.50;99.90
33645;DHT22;19986;48.190;16.366;2024-03-02T06:26:12;9.60;99.90
33645;DHT22;19986;48.190;16.366;2024-03-02T06:28:38;9.60;99.90
33645;DHT22;19986;48.190;16.366;2024-03-02T06:31:04;9.60;99.90
33645;DHT22;19986;48.190;16.366;2024-03-02T06:33:30;9.70;99.90
33645;DHT22;19986;48.190;16.366;2024-03-02T06:35:56;9.80;99.90
33645;DHT22;19986;48.190;16.366;2024-03-02T06:38:22;9.90;99.90
33645;DHT22;19986;48.190;16.366;2024-03-02T06:40:48;10.00;99.90
33645;DHT22;19986;48.190;16.366;2024-03-02T06:43:13;10.00;99.90
33645;DHT22;19986;48.190;16.366;2024-03-02T06:45:39;10.00;99.90
33645;DHT22;19986;48.190;16.366;2024-03-02T06:48:06;10.00;99.90
33645;DHT22;19986;48.190;16.366;2024-03-02T06:50:32;9.90;99.90
33645;DHT22;19986;48.190;16.366;2024-03-02T06:52:58;9.90;99.90
33645;DHT22;19986;48.190;16.366;2024-03-02T06:55:24;10.00;99.90
33645;DHT22;19986;48.190;16.366;2024-03-02T06:57:51;10.20;99.90
33645;DHT22;19986;48.190;16.366;2024-03-02T07:00:18;10.30;99.90
33645;DHT22;19986;48.190;16.366;2024-03-02T07:02:46;10.30;99.90
33645;DHT22;19986;48.190;16.366;2024-03-02T07:05:12;10.30;99.90
33645;DHT22;19986;48.190;16.366;2024-03-02T07:07:53;10.30;99.90
33645;DHT22;19986;48.190;16.366;2024-03-02T07:10:19;10.30;99.90
33645;DHT22;19986;48.190;16.366;2024-03-02T07:12:44;10.40;99.90
33645;DHT22;19986;48.190;16.366;2024-03-02T07:15:11;10.40;99.90
33645;DHT22;19986;48.190;16.366;2024-03-02T07:17:47;10.40;99.90
33645;DHT22;19986;48.190;16.366;2024-03-02T07:20:13;10.40;99.90
33645;DHT22;19986;48.190;16.366;2024-03-02T07:22:39;10.40;99.90
33645;DHT22;19986;48.190;16.366;2024-03-02T07:25:05;10.30;99.90
33645;DHT22;19986;48.190;16.366;2024-03-02T07:27:33;10.40;99.90
33645;DHT22;19986;48.190;16.366;2024-03-02T07:30:01;10.40;99.90
33645;DHT22;19986;48.190;16.366;2024-03-02T07:32:27;10.40;99.90
33645;DHT22;19986;48.190;16.366;2024-03-02T07:34:53;10.40;99.90
33645;DHT22;19986;48.190;16.366;2024-03-02T07:37:19;10.50;99.90
33645;DHT22;19986;48.190;16.366;2024-03-02T07:39:46;10.60;99.90
33645;DHT22;19986;48.190;16.366;2024-03-02T07:42:11;10.50;99.90
33645;DHT22;19986;48.190;16.366;2024-03-02T07:44:37;10.40;99.90
33645;DHT22;19986;48.190;16.366;2024-03-02T07:47:03;10.50;99.90
33645;DHT22;19986;48.190;16.366;2024-03-02T07:49:29;10.70;99.90
33645;DHT22;19986;48.190;16.366;2024-03-02T07:51:55;10.90;99.90
33645;DHT22;19986;48.190;16.366;2024-03-02T07:54:21;10.90;99.90
33645;DHT22;19986;48.190;16.366;2024-03-02T07:56:47;10.80;99.90
33645;DHT22;19986;48.190;16.366;2024-03-02T07:59:13;10.80;99.90
33645;DHT22;19986;48.190;16.366;2024-03-02T08:01:39;10.90;99.90
33645;DHT22;19986;48.190;16.366;2024-03-02T08:04:05;11.00;99.90
33645;DHT22;19986;48.190;16.366;2024-03-02T08:06:33;10.90;99.90
33645;DHT22;19986;48.190;16.366;2024-03-02T08:09:01;10.70;99.90
33645;DHT22;19986;48.190;16.366;2024-03-02T08:11:28;10.70;99.90
33645;DHT22;19986;48.190;16.366;2024-03-02T08:13:56;10.90;99.90
33645;DHT22;19986;48.190;16.366;2024-03-02T08:16:23;11.00;99.90
33645;DHT22;19986;48.190;16.366;2024-03-02T08:18:50;11.00;99.90
33645;DHT22;19986;48.190;16.366;2024-03-02T08:21:17;10.90;99.90
33645;DHT22;19986;48.190;16.366;2024-03-02T08:23:44;10.90;99.90
33645;DHT22;19986;48.190;16.366;2024-03-02T08:26:11;10.90;99.90
33645;DHT22;19986;48.190;16.366;2024-03-02T08:28:37;10.90;99.90
33645;DHT22;19986;48.190;16.366;2024-03-02T08:31:03;11.00;99.90
33645;DHT22;19986;48.190;16.366;2024-03-02T08:33:29;11.10;99.90
33645;DHT22;19986;48.190;16.366;2024-03-02T08:35:56;11.10;99.90
33645;DHT22;19986;48.190;16.366;2024-03-02T08:38:22;11.10;99.90
33645;DHT22;19986;48.190;16.366;2024-03-02T08:40:49;11.20;99.90
33645;DHT22;19986;48.190;16.366;2024-03-02T08:43:15;11.30;99.90
33645;DHT22;19986;48.190;16.366;2024-03-02T08:45:41;11.30;99.90
33645;DHT22;19986;48.190;16.366;2024-03-02T08:48:08;11.40;99.90
33645;DHT22;19986;48.190;16.366;2024-03-02T08:50:35;11.50;99.90
33645;DHT22;19986;48.190;16.366;2024-03-02T08:53:01;11.60;99.90
33645;DHT22;19986;48.190;16.366;2024-03-02T08:55:27;11.80;99.90
33645;DHT22;19986;48.190;16.366;2024-03-02T08:57:53;11.70;99.90
33645;DHT22;19986;48.190;16.366;2024-03-02T09:00:19;11.80;99.90
33645;DHT22;19986;48.190;16.366;2024-03-02T09:02:45;11.90;99.90
33645;DHT22;19986;48.190;16.366;2024-03-02T09:05:12;12.00;99.90
33645;DHT22;19986;48.190;16.366;2024-03-02T09:07:37;12.20;99.90
33645;DHT22;19986;48.190;16.366;2024-03-02T09:10:08;12.40;99.90
33645;DHT22;19986;48.190;16.366;2024-03-02T09:12:35;12.50;99.90
33645;DHT22;19986;48.190;16.366;2024-03-02T09:15:01;12.60;99.90
33645;DHT22;19986;48.190;16.366;2024-03-02T09:17:29;12.80;99.90
33645;DHT22;19986;48.190;16.366;2024-03-02T09:19:55;12.70;99.90
33645;DHT22;19986;48.190;16.366;2024-03-02T09:22:21;12.70;99.90
33645;DHT22;19986;48.190;16.366;2024-03-02T09:24:47;12.80;99.90
33645;DHT22;19986;48.190;16.366;2024-03-02T09:27:12;12.80;99.90
33645;DHT22;19986;48.190;16.366;2024-03-02T09:29:41;12.90;99.90
33645;DHT22;19986;48.190;16.366;2024-03-02T09:32:08;13.00;99.90
33645;DHT22;19986;48.190;16.366;2024-03-02T09:34:34;13.00;99.90
33645;DHT22;19986;48.190;16.366;2024-03-02T09:37:00;13.10;99.90
33645;DHT22;19986;48.190;16.366;2024-03-02T09:39:25;13.20;99.90
33645;DHT22;19986;48.190;16.366;2024-03-02T09:41:51;13.20;99.90
33645;DHT22;19986;48.190;16.366;2024-03-02T09:44:18;13.40;99.90
33645;DHT22;19986;48.190;16.366;2024-03-02T09:46:49;13.60;99.90
33645;DHT22;19986;48.190;16.366;2024-03-02T09:49:15;13.60;99.90
33645;DHT22;19986;48.190;16.366;2024-03-02T09:51:41;13.60;99.90
33645;DHT22;19986;48.190;16.366;2024-03-02T09:54:13;13.70;99.90
33645;DHT22;19986;48.190;16.366;2024-03-02T09:56:39;13.80;99.90
33645;DHT22;19986;48.190;16.366;2024-03-02T09:59:05;13.70;99.90
33645;DHT22;19986;48.190;16.366;2024-03-02T10:01:32;13.80;99.90
33645;DHT22;19986;48.190;16.366;2024-03-02T10:03:59;13.80;99.90
33645;DHT22;19986;48.190;16.366;2024-03-02T10:06:27;13.80;99.90
33645;DHT22;19986;48.190;16.366;2024-03-02T10:08:54;14.00;99.90
33645;DHT22;19986;48.190;16.366;2024-03-02T10:11:27;14.10;99.90
33645;DHT22;19986;48.190;16.366;2024-03-02T10:14:13;14.10;99.90
33645;DHT22;19986;48.190;16.366;2024-03-02T10:16:44;14.00;99.90
33645;DHT22;19986;48.190;16.366;2024-03-02T10:19:25;13.90;99.90
33645;DHT22;19986;48.190;16.366;2024-03-02T10:21:53;14.10;99.90
33645;DHT22;19986;48.190;16.366;2024-03-02T10:24:21;14.20;99.90
33645;DHT22;19986;48.190;16.366;2024-03-02T10:26:47;14.30;99.90
33645;DHT22;19986;48.190;16.366;2024-03-02T10:29:14;14.10;99.90
33645;DHT22;19986;48.190;16.366;2024-03-02T10:31:42;14.20;99.90
33645;DHT22;19986;48.190;16.366;2024-03-02T10:34:09;14.40;99.90
33645;DHT22;19986;48.190;16.366;2024-03-02T10:36:36;14.30;99.90
33645;DHT22;19986;48.190;16.366;2024-03-02T10:39:06;14.20;99.90
33645;DHT22;19986;48.190;16.366;2024-03-02T10:41:36;14.10;99.90
33645;DHT22;19986;48.190;16.366;2024-03-02T10:44:04;14.20;99.90
33645;DHT22;19986;48.190;16.366;2024-03-02T10:46:34;14.30;99.90
33645;DHT22;19986;48.190;16.366;2024-03-02T10:49:01;14.50;99.90
33645;DHT22;19986;48.190;16.366;2024-03-02T10:51:28;14.60;99.90
33645;DHT22;19986;48.190;16.366;2024-03-02T10:54:01;14.50;99.90
33645;DHT22;19986;48.190;16.366;2024-03-02T10:56:33;14.60;99.90
33645;DHT22;19986;48.190;16.366;2024-03-02T10:59:06;14.60;99.90
33645;DHT22;19986;48.190;16.366;2024-03-02T11:01:39;14.60;99.90
33645;DHT22;19986;48.190;16.366;2024-03-02T11:04:08;14.70;99.90
33645;DHT22;19986;48.190;16.366;2024-03-02T11:06:36;14.80;99.90
33645;DHT22;19986;48.190;16.366;2024-03-02T11:09:07;14.90;99.90
33645;DHT22;19986;48.190;16.366;2024-03-02T11:11:37;15.00;99.90
33645;DHT22;19986;48.190;16.366;2024-03-02T11:14:07;15.00;99.90
33645;DHT22;19986;48.190;16.366;2024-03-02T11:16:38;15.00;99.90
33645;DHT22;19986;48.190;16.366;2024-03-02T11:19:06;14.90;99.90
33645;DHT22;19986;48.190;16.366;2024-03-02T11:21:36;14.90;99.90
33645;DHT22;19986;48.190;16.366;2024-03-02T11:26:48;15.00;99.90
33645;DHT22;19986;48.190;16.366;2024-03-02T11:32:06;14.80;99.90
33645;DHT22;19986;48.190;16.366;2024-03-02T11:34:35;14.80;99.90
33645;DHT22;19986;48.190;16.366;2024-03-02T11:37:02;14.80;99.90
33645;DHT22;19986;48.190;16.366;2024-03-02T11:39:28;14.90;99.90
33645;DHT22;19986;48.190;16.366;2024-03-02T11:41:57;14.90;99.90
33645;DHT22;19986;48.190;16.366;2024-03-02T11:44:27;14.90;99.90
33645;DHT22;19986;48.190;16.366;2024-03-02T11:47:02;14.90;99.90
33645;DHT22;19986;48.190;16.366;2024-03-02T11:49:38;14.90;99.90
33645;DHT22;19986;48.190;16.366;2024-03-02T11:52:05;15.00;99.90
33645;DHT22;19986;48.190;16.366;2024-03-02T11:54:37;15.00;99.90
33645;DHT22;19986;48.190;16.366;2024-03-02T11:57:22;15.00;99.90
33645;DHT22;19986;48.190;16.366;2024-03-02T11:59:49;15.00;99.90
33645;DHT22;19986;48.190;16.366;2024-03-02T12:02:19;15.10;99.90
33645;DHT22;19986;48.190;16.366;2024-03-02T12:04:47;15.10;99.90
33645;DHT22;19986;48.190;16.366;2024-03-02T12:07:21;15.10;99.90
33645;DHT22;19986;48.190;16.366;2024-03-02T12:09:48;15.10;99.90
33645;DHT22;19986;48.190;16.366;2024-03-02T12:12:14;15.10;99.90
33645;DHT22;19986;48.190;16.366;2024-03-02T12:14:51;15.00;99.90
33645;DHT22;19986;48.190;16.366;2024-03-02T12:17:18;14.80;99.90
33645;DHT22;19986;48.190;16.366;2024-03-02T12:19:44;14.70;99.90
33645;DHT22;19986;48.190;16.366;2024-03-02T12:22:11;14.80;99.90
33645;DHT22;19986;48.190;16.366;2024-03-02T12:24:37;14.90;99.90
33645;DHT22;19986;48.190;16.366;2024-03-02T12:27:05;14.90;99.90
33645;DHT22;19986;48.190;16.366;2024-03-02T12:29:31;14.90;99.90
33645;DHT22;19986;48.190;16.366;2024-03-02T12:31:58;14.90;99.90
33645;DHT22;19986;48.190;16.366;2024-03-02T12:34:26;14.90;99.90
33645;DHT22;19986;48.190;16.366;2024-03-02T12:37:12;15.10;99.90
33645;DHT22;19986;48.190;16.366;2024-03-02T12:39:39;15.30;99.90
33645;DHT22;19986;48.190;16.366;2024-03-02T12:42:05;15.40;99.90
33645;DHT22;19986;48.190;16.366;2024-03-02T12:44:31;15.40;99.90
33645;DHT22;19986;48.190;16.366;2024-03-02T12:46:57;15.50;99.90
33645;DHT22;19986;48.190;16.366;2024-03-02T12:49:23;15.60;99.90
33645;DHT22;19986;48.190;16.366;2024-03-02T12:51:49;15.80;99.90
33645;DHT22;19986;48.190;16.366;2024-03-02T12:54:22;15.90;99.90
33645;DHT22;19986;48.190;16.366;2024-03-02T12:56:48;16.00;99.90
33645;DHT22;19986;48.190;16.366;2024-03-02T12:59:18;16.10;99.90
33645;DHT22;19986;48.190;16.366;2024-03-02T13:01:54;16.00;99.90
33645;DHT22;19986;48.190;16.366;2024-03-02T13:04:26;15.90;99.90
33645;DHT22;19986;48.190;16.366;2024-03-02T13:06:54;15.80;99.90
33645;DHT22;19986;48.190;16.366;2024-03-02T13:09:22;15.70;99.90
33645;DHT22;19986;48.190;16.366;2024-03-02T13:11:51;15.80;99.90
33645;DHT22;19986;48.190;16.366;2024-03-02T13:14:17;15.90;99.90
33645;DHT22;19986;48.190;16.366;2024-03-02T13:16:44;15.90;99.90
33645;DHT22;19986;48.190;16.366;2024-03-02T13:19:13;16.00;99.90
33645;DHT22;19986;48.190;16.366;2024-03-02T13:21:39;16.20;99.90
33645;DHT22;19986;48.190;16.366;2024-03-02T13:24:06;16.20;99.90
33645;DHT22;19986;48.190;16.366;2024-03-02T13:26:31;16.10;99.90
33645;DHT22;19986;48.190;16.366;2024-03-02T13:28:57;16.00;99.90
33645;DHT22;19986;48.190;16.366;2024-03-02T13:31:23;16.10;99.90
33645;DHT22;19986;48.190;16.366;2024-03-02T13:33:50;16.10;99.90
33645;DHT22;19986;48.190;16.366;2024-03-02T13:36:16;16.10;99.90
33645;DHT22;19986;48.190;16.366;2024-03-02T13:38:43;16.20;99.90
33645;DHT22;19986;48.190;16.366;2024-03-02T13:41:09;16.20;99.90
33645;DHT22;19986;48.190;16.366;2024-03-02T13:43:36;16.20;99.90
33645;DHT22;19986;48.190;16.366;2024-03-02T13:46:04;16.20;99.90
33645;DHT22;19986;48.190;16.366;2024-03-02T13:48:30;16.20;99.90
33645;DHT22;19986;48.190;16.366;2024-03-02T13:50:56;16.30;99.90
33645;DHT22;19986;48.190;16.366;2024-03-02T13:53:22;16.40;99.90
33645;DHT22;19986;48.190;16.366;2024-03-02T13:55:49;16.40;99.90
33645;DHT22;19986;48.190;16.366;2024-03-02T13:58:15;16.40;99.90
33645;DHT22;19986;48.190;16.366;2024-03-02T14:00:42;16.30;99.90
33645;DHT22;19986;48.190;16.366;2024-03-02T14:03:09;16.40;99.90
33645;DHT22;19986;48.190;16.366;2024-03-02T14:05:35;16.30;99.90
33645;DHT22;19986;48.190;16.366;2024-03-02T14:08:02;16.20;99.90
33645;DHT22;19986;48.190;16.366;2024-03-02T14:10:28;16.20;99.90
33645;DHT22;19986;48.190;16.366;2024-03-02T14:12:55;16.10;99.90
33645;DHT22;19986;48.190;16.366;2024-03-02T14:15:24;15.90;99.90
33645;DHT22;19986;48.190;16.366;2024-03-02T14:17:50;15.80;99.90
33645;DHT22;19986;48.190;16.366;2024-03-02T14:20:16;15.70;99.90
33645;DHT22;19986;48.190;16.366;2024-03-02T14:22:48;15.70;99.90
33645;DHT22;19986;48.190;16.366;2024-03-02T14:25:14;15.70;99.90
33645;DHT22;19986;48.190;16.366;2024-03-02T14:27:39;15.60;99.90
33645;DHT22;19986;48.190;16.366;2024-03-02T14:30:06;15.50;99.90
33645;DHT22;19986;48.190;16.366;2024-03-02T14:32:32;15.40;99.90
33645;DHT22;19986;48.190;16.366;2024-03-02T14:34:58;15.30;99.90
33645;DHT22;19986;48.190;16.366;2024-03-02T14:37:24;15.20;99.90
33645;DHT22;19986;48.190;16.366;2024-03-02T14:39:50;15.10;99.90
33645;DHT22;19986;48.190;16.366;2024-03-02T14:42:16;15.10;99.90
33645;DHT22;19986;48.190;16.366;2024-03-02T14:44:42;15.10;99.90
33645;DHT22;19986;48.190;16.366;2024-03-02T14:47:08;15.20;99.90
33645;DHT22;19986;48.190;16.366;2024-03-02T14:49:34;15.20;99.90
33645;DHT22;19986;48.190;16.366;2024-03-02T14:52:03;15.20;99.90
33645;DHT22;19986;48.190;16.366;2024-03-02T14:54:30;15.20;99.90
33645;DHT22;19986;48.190;16.366;2024-03-02T14:56:55;15.10;99.90
33645;DHT22;19986;48.190;16.366;2024-03-02T14:59:22;15.10;99.90
33645;DHT22;19986;48.190;16.366;2024-03-02T15:01:49;15.20;99.90
33645;DHT22;19986;48.190;16.366;2024-03-02T15:04:15;15.20;99.90
33645;DHT22;19986;48.190;16.366;2024-03-02T15:06:42;15.20;99.90
33645;DHT22;19986;48.190;16.366;2024-03-02T15:09:08;15.20;99.90
33645;DHT22;19986;48.190;16.366;2024-03-02T15:11:34;15.20;99.90
33645;DHT22;19986;48.190;16.366;2024-03-02T15:14:00;15.20;99.90
33645;DHT22;19986;48.190;16.366;2024-03-02T15:16:26;15.20;99.90
33645;DHT22;19986;48.190;16.366;2024-03-02T15:18:53;15.10;99.90
33645;DHT22;19986;48.190;16.366;2024-03-02T15:21:19;15.10;99.90
33645;DHT22;19986;48.190;16.366;2024-03-02T15:23:45;15.00;99.90
33645;DHT22;19986;48.190;16.366;2024-03-02T15:26:11;15.00;99.90
33645;DHT22;19986;48.190;16.366;2024-03-02T15:28:37;15.00;99.90
33645;DHT22;19986;48.190;16.366;2024-03-02T15:31:03;15.00;99.90